createdAt,value
2022-08-27T00:00:13.382Z,19.48
2022-08-27T00:01:13.314Z,19.45
2022-08-27T00:02:13.301Z,19.45
2022-08-27T00:03:13.155Z,19.46
2022-08-27T00:04:13.123Z,19.45
2022-08-27T00:05:13.008Z,19.46
2022-08-27T00:06:12.931Z,19.40
2022-08-27T00:07:12.859Z,19.54
2022-08-27T00:08:13.069Z,19.54
2022-08-27T00:09:12.710Z,19.57
2022-08-27T00:10:12.636Z,19.53
2022-08-27T00:11:12.567Z,19.54
2022-08-27T00:12:12.484Z,19.53
2022-08-27T00:13:12.412Z,19.51
2022-08-27T00:14:12.336Z,19.46
2022-08-27T00:15:12.260Z,19.54
2022-08-27T00:16:12.242Z,19.42
2022-08-27T00:17:12.113Z,19.43
2022-08-27T00:18:12.321Z,19.42
2022-08-27T00:19:11.960Z,19.40
2022-08-27T00:20:11.883Z,19.40
2022-08-27T00:21:11.809Z,19.45
2022-08-27T00:22:11.737Z,19.48
2022-08-27T00:23:11.659Z,19.48
2022-08-27T00:24:11.588Z,19.42
2022-08-27T00:25:11.526Z,19.46
2022-08-27T00:26:11.441Z,19.43
2022-08-27T00:27:11.361Z,19.35
2022-08-27T00:28:11.378Z,19.38
2022-08-27T00:29:11.211Z,19.39
2022-08-27T00:30:11.134Z,19.40
2022-08-27T00:31:12.379Z,19.40
2022-08-27T00:32:11.014Z,19.45
2022-08-27T00:33:10.916Z,19.39
2022-08-27T00:34:13.016Z,19.38
2022-08-27T00:35:10.768Z,19.35
2022-08-27T00:36:10.686Z,19.35
2022-08-27T00:37:10.616Z,19.39
2022-08-27T00:38:10.610Z,19.43
2022-08-27T00:39:10.461Z,19.46
2022-08-27T00:40:10.435Z,19.40
2022-08-27T00:41:10.315Z,19.35
2022-08-27T00:42:10.239Z,19.36
2022-08-27T00:43:10.165Z,19.36
2022-08-27T00:44:10.086Z,19.39
2022-08-27T00:45:10.012Z,19.35
2022-08-27T00:46:09.984Z,19.43
2022-08-27T00:47:09.863Z,19.32
2022-08-27T00:48:09.895Z,19.38
2022-08-27T00:49:09.713Z,19.38
2022-08-27T00:50:09.644Z,19.35
2022-08-27T00:51:09.561Z,19.38
2022-08-27T00:52:09.488Z,19.35
2022-08-27T00:53:09.418Z,19.32
2022-08-27T00:54:09.339Z,19.38
2022-08-27T00:55:09.266Z,19.36
2022-08-27T00:56:09.190Z,19.33
2022-08-27T00:57:09.115Z,19.35
2022-08-27T00:58:09.276Z,19.43
2022-08-27T00:59:08.965Z,19.40
2022-08-27T01:00:08.889Z,19.38
2022-08-27T01:01:08.882Z,19.36
2022-08-27T01:02:08.812Z,19.40
2022-08-27T01:03:08.667Z,19.46
2022-08-27T01:04:08.594Z,19.45
2022-08-27T01:05:08.519Z,19.43
2022-08-27T01:06:08.437Z,19.39
2022-08-27T01:07:08.367Z,19.43
2022-08-27T01:08:08.332Z,19.42
2022-08-27T01:09:08.214Z,19.43
2022-08-27T01:10:08.137Z,19.43
2022-08-27T01:11:08.073Z,19.42
2022-08-27T01:12:07.993Z,19.36
2022-08-27T01:13:07.917Z,19.36
2022-08-27T01:14:07.839Z,19.35
2022-08-27T01:15:07.765Z,19.31
2022-08-27T01:16:07.732Z,19.31
2022-08-27T01:17:07.620Z,19.35
2022-08-27T01:18:07.587Z,19.33
2022-08-27T01:19:07.472Z,19.21
2022-08-27T01:20:07.392Z,19.35
2022-08-27T01:21:07.315Z,19.31
2022-08-27T01:22:07.237Z,19.31
2022-08-27T01:23:07.177Z,19.42
2022-08-27T01:24:07.091Z,19.38
2022-08-27T01:25:07.015Z,19.42
2022-08-27T01:26:06.942Z,19.38
2022-08-27T01:27:06.873Z,19.43
2022-08-27T01:28:06.836Z,19.40
2022-08-27T01:29:06.718Z,19.39
2022-08-27T01:30:06.640Z,19.45
2022-08-27T01:31:06.632Z,19.39
2022-08-27T01:32:06.488Z,19.42
2022-08-27T01:33:06.414Z,19.39
2022-08-27T01:34:06.341Z,19.43
2022-08-27T01:35:06.274Z,19.35
2022-08-27T01:36:06.187Z,19.40
2022-08-27T01:37:06.115Z,19.36
2022-08-27T01:38:06.044Z,19.36
2022-08-27T01:39:05.962Z,19.46
2022-08-27T01:40:05.939Z,19.36
2022-08-27T01:41:05.819Z,19.35
2022-08-27T01:42:05.741Z,19.33
2022-08-27T01:43:05.664Z,19.32
2022-08-27T01:44:05.594Z,19.33
2022-08-27T01:45:06.005Z,19.27
2022-08-27T01:46:05.435Z,19.31
2022-08-27T01:47:05.427Z,19.31
2022-08-27T01:48:05.290Z,19.23
2022-08-27T01:49:05.216Z,19.31
2022-08-27T01:50:05.135Z,19.18
2022-08-27T01:51:05.091Z,19.20
2022-08-27T01:52:04.988Z,19.17
2022-08-27T01:53:04.913Z,19.08
2022-08-27T01:54:04.835Z,19.15
2022-08-27T01:55:04.766Z,19.02
2022-08-27T01:56:04.699Z,19.02
2022-08-27T01:57:04.617Z,19.18
2022-08-27T01:58:04.541Z,19.05
2022-08-27T01:59:04.469Z,19.11
2022-08-27T02:00:04.389Z,19.18
2022-08-27T02:01:04.373Z,19.09
2022-08-27T02:02:04.277Z,19.08
2022-08-27T02:03:04.167Z,19.14
2022-08-27T02:04:04.087Z,19.18
2022-08-27T02:05:04.012Z,19.20
2022-08-27T02:06:03.941Z,19.20
2022-08-27T02:07:03.863Z,19.18
2022-08-27T02:08:03.831Z,19.15
2022-08-27T02:09:03.716Z,19.20
2022-08-27T02:10:03.637Z,19.17
2022-08-27T02:11:03.578Z,19.27
2022-08-27T02:12:03.492Z,19.17
2022-08-27T02:13:03.418Z,19.25
2022-08-27T02:14:03.336Z,19.24
2022-08-27T02:15:03.264Z,19.24
2022-08-27T02:16:03.262Z,19.27
2022-08-27T02:17:03.111Z,19.20
2022-08-27T02:18:03.149Z,19.32
2022-08-27T02:19:02.961Z,19.24
2022-08-27T02:20:02.887Z,19.27
2022-08-27T02:21:02.816Z,19.27
2022-08-27T02:22:02.743Z,19.28
2022-08-27T02:23:02.663Z,19.25
2022-08-27T02:24:02.588Z,19.24
2022-08-27T02:25:02.529Z,19.27
2022-08-27T02:26:02.439Z,19.28
2022-08-27T02:27:02.361Z,19.28
2022-08-27T02:28:02.286Z,19.31
2022-08-27T02:29:02.215Z,19.25
2022-08-27T02:30:02.143Z,19.27
2022-08-27T02:31:02.145Z,19.31
2022-08-27T02:32:01.987Z,19.38
2022-08-27T02:33:01.913Z,19.25
2022-08-27T02:34:01.840Z,19.28
2022-08-27T02:35:01.763Z,19.25
2022-08-27T02:36:01.691Z,19.31
2022-08-27T02:37:01.612Z,19.32
2022-08-27T02:38:01.542Z,19.31
2022-08-27T02:39:01.462Z,19.36
2022-08-27T02:40:01.448Z,19.36
2022-08-27T02:41:01.314Z,19.23
2022-08-27T02:42:01.235Z,19.32
2022-08-27T02:43:01.165Z,19.39
2022-08-27T02:44:01.265Z,19.33
2022-08-27T02:45:01.014Z,19.40
2022-08-27T02:46:00.938Z,19.32
2022-08-27T02:47:00.878Z,19.40
2022-08-27T02:48:00.785Z,19.21
2022-08-27T02:49:00.712Z,19.31
2022-08-27T02:50:00.635Z,19.31
2022-08-27T02:51:00.572Z,19.27
2022-08-27T02:52:00.486Z,19.21
2022-08-27T02:53:00.407Z,19.17
2022-08-27T02:54:00.350Z,19.20
2022-08-27T02:55:00.260Z,19.18
2022-08-27T02:56:00.198Z,19.13
2022-08-27T02:57:00.110Z,19.21
2022-08-27T02:58:00.037Z,19.18
2022-08-27T02:58:59.960Z,19.06
2022-08-27T02:59:59.887Z,19.20
2022-08-27T03:00:59.810Z,19.20
2022-08-27T03:01:59.853Z,19.20
2022-08-27T03:02:59.684Z,19.18
2022-08-27T03:03:59.586Z,19.17
2022-08-27T03:04:59.509Z,19.21
2022-08-27T03:05:59.438Z,19.18
2022-08-27T03:06:59.357Z,19.15
2022-08-27T03:07:59.291Z,19.15
2022-08-27T03:08:59.207Z,19.18
2022-08-27T03:09:59.132Z,19.15
2022-08-27T03:10:59.060Z,19.18
2022-08-27T03:11:58.987Z,19.21
2022-08-27T03:12:58.908Z,19.23
2022-08-27T03:13:58.831Z,19.18
2022-08-27T03:14:58.755Z,19.23
2022-08-27T03:15:58.702Z,19.20
2022-08-27T03:16:58.610Z,19.18
2022-08-27T03:17:58.534Z,19.20
2022-08-27T03:18:58.461Z,19.18
2022-08-27T03:19:58.390Z,19.17
2022-08-27T03:20:58.306Z,19.31
2022-08-27T03:21:58.237Z,19.24
2022-08-27T03:22:58.159Z,19.25
2022-08-27T03:23:58.082Z,19.27
2022-08-27T03:24:58.012Z,19.18
2022-08-27T03:25:57.933Z,19.17
2022-08-27T03:26:57.858Z,19.17
2022-08-27T03:27:57.784Z,19.24
2022-08-27T03:28:57.706Z,19.20
2022-08-27T03:30:01.864Z,19.02
2022-08-27T03:30:57.599Z,19.06
2022-08-27T03:31:57.481Z,19.11
2022-08-27T03:32:57.406Z,19.06
2022-08-27T03:33:57.333Z,18.99
2022-08-27T03:34:57.253Z,19.01
2022-08-27T03:35:57.182Z,19.02
2022-08-27T03:36:57.109Z,19.08
2022-08-27T03:37:57.031Z,19.01
2022-08-27T03:38:56.954Z,19.15
2022-08-27T03:39:56.936Z,19.09
2022-08-27T03:40:56.806Z,19.11
2022-08-27T03:41:56.731Z,19.06
2022-08-27T03:42:56.659Z,19.08
2022-08-27T03:43:56.577Z,19.09
2022-08-27T03:44:56.511Z,19.09
2022-08-27T03:46:01.721Z,18.99
2022-08-27T03:46:56.353Z,18.97
2022-08-27T03:47:56.281Z,18.92
2022-08-27T03:48:57.395Z,18.94
2022-08-27T03:49:56.125Z,18.90
2022-08-27T03:50:56.050Z,18.94
2022-08-27T03:51:55.975Z,18.79
2022-08-27T03:52:55.904Z,18.92
2022-08-27T03:53:55.827Z,18.94
2022-08-27T03:54:55.750Z,18.79
2022-08-27T03:55:55.677Z,18.90
2022-08-27T03:56:55.606Z,18.73
2022-08-27T03:57:55.526Z,18.80
2022-08-27T03:58:55.450Z,18.77
2022-08-27T03:59:55.375Z,18.73
2022-08-27T04:00:55.305Z,18.68
2022-08-27T04:01:55.293Z,18.76
2022-08-27T04:02:55.180Z,18.74
2022-08-27T04:03:55.083Z,18.79
2022-08-27T04:04:55.001Z,18.79
2022-08-27T04:05:54.921Z,18.79
2022-08-27T04:06:54.850Z,18.71
2022-08-27T04:07:54.773Z,18.84
2022-08-27T04:08:54.705Z,18.86
2022-08-27T04:09:54.628Z,18.83
2022-08-27T04:10:54.554Z,18.86
2022-08-27T04:11:54.476Z,18.84
2022-08-27T04:12:54.399Z,18.76
2022-08-27T04:13:54.325Z,18.82
2022-08-27T04:14:54.250Z,18.69
2022-08-27T04:15:54.211Z,18.71
2022-08-27T04:16:54.095Z,18.71
2022-08-27T04:17:54.022Z,18.68
2022-08-27T04:18:53.943Z,18.59
2022-08-27T04:19:53.870Z,18.61
2022-08-27T04:20:53.793Z,18.65
2022-08-27T04:21:53.716Z,18.55
2022-08-27T04:22:53.641Z,18.59
2022-08-27T04:23:53.582Z,18.55
2022-08-27T04:24:53.491Z,18.57
2022-08-27T04:25:53.414Z,18.61
2022-08-27T04:26:53.341Z,18.59
2022-08-27T04:27:53.266Z,18.59
2022-08-27T04:28:53.192Z,18.57
2022-08-27T04:29:53.111Z,18.58
2022-08-27T04:30:53.109Z,18.53
2022-08-27T04:31:52.966Z,18.58
2022-08-27T04:32:52.888Z,18.59
2022-08-27T04:33:52.817Z,18.57
2022-08-27T04:34:52.737Z,18.57
2022-08-27T04:35:52.666Z,18.59
2022-08-27T04:36:52.589Z,18.55
2022-08-27T04:37:52.513Z,18.49
2022-08-27T04:38:52.441Z,18.53
2022-08-27T04:39:52.407Z,18.58
2022-08-27T04:40:52.288Z,18.44
2022-08-27T04:41:52.214Z,18.46
2022-08-27T04:42:52.139Z,18.58
2022-08-27T04:43:52.057Z,18.57
2022-08-27T04:44:52.021Z,18.55
2022-08-27T04:45:51.906Z,18.58
2022-08-27T04:46:51.863Z,18.64
2022-08-27T04:47:51.763Z,18.62
2022-08-27T04:48:51.680Z,18.57
2022-08-27T04:49:51.609Z,18.58
2022-08-27T04:50:51.534Z,18.61
2022-08-27T04:51:51.456Z,18.62
2022-08-27T04:52:51.379Z,18.61
2022-08-27T04:53:51.307Z,18.62
2022-08-27T04:54:51.229Z,18.55
2022-08-27T04:55:51.157Z,18.65
2022-08-27T04:56:51.079Z,18.65
2022-08-27T04:57:51.002Z,18.71
2022-08-27T04:58:50.936Z,18.62
2022-08-27T04:59:50.851Z,18.65
2022-08-27T05:00:50.778Z,18.68
2022-08-27T05:01:50.750Z,18.67
2022-08-27T05:02:50.631Z,18.69
2022-08-27T05:03:50.556Z,18.65
2022-08-27T05:04:50.507Z,18.65
2022-08-27T05:05:50.400Z,18.77
2022-08-27T05:06:50.329Z,18.65
2022-08-27T05:07:50.249Z,18.71
2022-08-27T05:08:50.174Z,18.65
2022-08-27T05:09:50.095Z,18.68
2022-08-27T05:10:50.022Z,18.77
2022-08-27T05:11:49.945Z,18.74
2022-08-27T05:12:50.136Z,18.77
2022-08-27T05:13:49.797Z,18.80
2022-08-27T05:14:49.722Z,18.79
2022-08-27T05:15:49.710Z,18.79
2022-08-27T05:16:49.571Z,18.83
2022-08-27T05:17:49.493Z,18.79
2022-08-27T05:18:49.430Z,18.80
2022-08-27T05:19:49.345Z,18.79
2022-08-27T05:20:49.266Z,18.87
2022-08-27T05:21:49.191Z,18.87
2022-08-27T05:22:49.125Z,18.83
2022-08-27T05:23:49.040Z,18.80
2022-08-27T05:24:50.466Z,18.89
2022-08-27T05:25:48.898Z,18.94
2022-08-27T05:26:48.816Z,18.95
2022-08-27T05:27:48.740Z,18.90
2022-08-27T05:28:48.671Z,18.94
2022-08-27T05:29:48.589Z,18.97
2022-08-27T05:30:52.225Z,18.95
2022-08-27T05:31:48.436Z,18.99
2022-08-27T05:32:48.365Z,18.99
2022-08-27T05:33:48.298Z,18.99
2022-08-27T05:34:48.215Z,18.99
2022-08-27T05:35:48.139Z,19.06
2022-08-27T05:36:49.120Z,19.05
2022-08-27T05:37:47.984Z,19.06
2022-08-27T05:38:47.911Z,19.05
2022-08-27T05:39:47.836Z,18.98
2022-08-27T05:40:47.766Z,19.13
2022-08-27T05:41:47.683Z,19.11
2022-08-27T05:42:50.298Z,19.11
2022-08-27T05:43:50.123Z,19.05
2022-08-27T05:44:47.459Z,19.17
2022-08-27T05:45:47.387Z,19.21
2022-08-27T05:46:47.313Z,19.20
2022-08-27T05:47:47.231Z,19.27
2022-08-27T05:48:47.156Z,19.27
2022-08-27T05:49:47.085Z,19.28
2022-08-27T05:50:47.010Z,19.31
2022-08-27T05:51:46.932Z,19.35
2022-08-27T05:52:46.858Z,19.28
2022-08-27T05:53:46.777Z,19.42
2022-08-27T05:54:46.709Z,19.39
2022-08-27T05:55:46.641Z,19.39
2022-08-27T05:56:46.559Z,19.43
2022-08-27T05:57:46.478Z,19.40
2022-08-27T05:58:46.404Z,19.50
2022-08-27T05:59:46.328Z,19.54
2022-08-27T06:00:46.258Z,19.50
2022-08-27T06:01:46.179Z,19.64
2022-08-27T06:02:46.160Z,19.60
2022-08-27T06:03:46.030Z,19.54
2022-08-27T06:04:45.953Z,19.60
2022-08-27T06:05:45.881Z,19.61
2022-08-27T06:06:45.813Z,19.55
2022-08-27T06:07:45.726Z,19.57
2022-08-27T06:08:45.652Z,19.61
2022-08-27T06:09:45.581Z,19.64
2022-08-27T06:10:45.510Z,19.68
2022-08-27T06:11:45.427Z,19.68
2022-08-27T06:12:45.354Z,19.68
2022-08-27T06:13:45.278Z,19.71
2022-08-27T06:14:45.207Z,19.71
2022-08-27T06:15:45.155Z,19.72
2022-08-27T06:16:45.057Z,19.69
2022-08-27T06:17:44.975Z,19.78
2022-08-27T06:18:44.904Z,19.75
2022-08-27T06:19:44.827Z,19.78
2022-08-27T06:20:44.755Z,19.73
2022-08-27T06:21:44.674Z,19.79
2022-08-27T06:22:44.604Z,19.83
2022-08-27T06:23:44.528Z,19.93
2022-08-27T06:24:44.472Z,19.80
2022-08-27T06:25:44.420Z,19.91
2022-08-27T06:26:44.303Z,19.90
2022-08-27T06:27:44.226Z,20.01
2022-08-27T06:28:44.156Z,19.98
2022-08-27T06:29:44.078Z,20.03
2022-08-27T06:30:44.057Z,20.00
2022-08-27T06:31:43.929Z,20.05
2022-08-27T06:32:43.852Z,20.10
2022-08-27T06:33:43.779Z,20.06
2022-08-27T06:34:43.703Z,20.06
2022-08-27T06:35:43.627Z,20.08
2022-08-27T06:36:43.551Z,20.03
2022-08-27T06:37:43.475Z,20.13
2022-08-27T06:38:43.404Z,20.19
2022-08-27T06:39:43.328Z,20.08
2022-08-27T06:40:43.249Z,20.09
2022-08-27T06:41:43.178Z,20.15
2022-08-27T06:42:43.106Z,20.10
2022-08-27T06:43:43.031Z,20.08
2022-08-27T06:44:42.956Z,20.26
2022-08-27T06:45:42.878Z,20.23
2022-08-27T06:46:42.887Z,20.23
2022-08-27T06:47:42.728Z,20.30
2022-08-27T06:48:42.651Z,20.28
2022-08-27T06:49:43.810Z,20.33
2022-08-27T06:50:42.503Z,20.20
2022-08-27T06:51:42.435Z,20.28
2022-08-27T06:52:42.355Z,20.30
2022-08-27T06:53:42.283Z,20.31
2022-08-27T06:54:42.203Z,20.37
2022-08-27T06:55:42.128Z,20.42
2022-08-27T06:56:42.059Z,20.46
2022-08-27T06:57:41.978Z,20.43
2022-08-27T06:58:42.856Z,20.46
2022-08-27T06:59:41.828Z,20.50
2022-08-27T07:00:44.107Z,20.50
2022-08-27T07:01:41.924Z,20.51
2022-08-27T07:02:41.636Z,20.50
2022-08-27T07:03:41.529Z,20.35
2022-08-27T07:04:41.456Z,20.40
2022-08-27T07:05:41.381Z,20.54
2022-08-27T07:06:41.312Z,20.43
2022-08-27T07:07:46.754Z,20.56
2022-08-27T07:08:41.156Z,20.46
2022-08-27T07:09:41.082Z,20.42
2022-08-27T07:10:41.011Z,20.46
2022-08-27T07:11:40.933Z,20.40
2022-08-27T07:12:40.862Z,20.49
2022-08-27T07:13:40.783Z,20.38
2022-08-27T07:14:40.728Z,20.38
2022-08-27T07:15:40.678Z,20.40
2022-08-27T07:16:40.991Z,20.37
2022-08-27T07:17:40.483Z,20.42
2022-08-27T07:18:40.409Z,20.49
2022-08-27T07:19:40.803Z,20.40
2022-08-27T07:20:40.261Z,20.42
2022-08-27T07:21:40.189Z,20.51
2022-08-27T07:22:40.111Z,20.56
2022-08-27T07:23:40.038Z,20.49
2022-08-27T07:24:39.972Z,20.56
2022-08-27T07:25:39.891Z,20.49
2022-08-27T07:26:39.815Z,20.47
2022-08-27T07:27:39.740Z,20.46
2022-08-27T07:28:39.672Z,20.50
2022-08-27T07:29:39.586Z,20.49
2022-08-27T07:30:39.562Z,20.54
2022-08-27T07:31:39.442Z,20.61
2022-08-27T07:32:39.370Z,20.54
2022-08-27T07:33:39.290Z,20.47
2022-08-27T07:34:39.218Z,20.49
2022-08-27T07:35:39.138Z,20.62
2022-08-27T07:36:39.064Z,20.59
2022-08-27T07:37:38.995Z,20.64
2022-08-27T07:38:38.919Z,20.65
2022-08-27T07:39:38.839Z,20.62
2022-08-27T07:40:38.768Z,20.68
2022-08-27T07:41:38.702Z,20.54
2022-08-27T07:42:38.628Z,20.66
2022-08-27T07:43:38.545Z,20.69
2022-08-27T07:44:38.470Z,20.49
2022-08-27T07:45:38.465Z,20.59
2022-08-27T07:46:40.537Z,20.47
2022-08-27T07:47:38.241Z,20.54
2022-08-27T07:48:38.173Z,20.57
2022-08-27T07:49:38.096Z,20.49
2022-08-27T07:50:38.029Z,20.54
2022-08-27T07:51:37.952Z,20.62
2022-08-27T07:52:37.879Z,20.53
2022-08-27T07:53:37.794Z,20.53
2022-08-27T07:54:37.723Z,20.53
2022-08-27T07:55:37.650Z,20.68
2022-08-27T07:56:37.575Z,20.56
2022-08-27T07:57:37.504Z,20.61
2022-08-27T07:58:37.426Z,20.68
2022-08-27T07:59:37.354Z,20.61
2022-08-27T08:00:37.274Z,20.61
2022-08-27T08:01:37.254Z,20.68
2022-08-27T08:02:37.217Z,20.61
2022-08-27T08:03:37.059Z,20.62
2022-08-27T08:04:36.980Z,20.57
2022-08-27T08:05:36.911Z,20.65
2022-08-27T08:06:36.829Z,20.51
2022-08-27T08:07:36.758Z,20.53
2022-08-27T08:08:36.681Z,20.50
2022-08-27T08:09:36.605Z,20.56
2022-08-27T08:10:36.531Z,20.53
2022-08-27T08:11:36.455Z,20.50
2022-08-27T08:12:36.381Z,20.50
2022-08-27T08:13:36.308Z,20.64
2022-08-27T08:14:36.233Z,20.49
2022-08-27T08:15:36.158Z,20.66
2022-08-27T08:16:36.126Z,20.66
2022-08-27T08:17:36.013Z,20.56
2022-08-27T08:18:35.936Z,20.59
2022-08-27T08:19:35.861Z,20.59
2022-08-27T08:20:56.720Z,20.66
2022-08-27T08:21:35.713Z,20.72
2022-08-27T08:22:35.635Z,20.69
2022-08-27T08:23:35.563Z,20.72
2022-08-27T08:24:35.491Z,20.65
2022-08-27T08:25:38.773Z,20.80
2022-08-27T08:26:35.339Z,20.80
2022-08-27T08:27:35.264Z,20.75
2022-08-27T08:28:35.190Z,20.86
2022-08-27T08:29:35.120Z,20.80
2022-08-27T08:30:35.472Z,20.87
2022-08-27T08:31:34.983Z,20.89
2022-08-27T08:32:34.893Z,20.91
2022-08-27T08:33:34.833Z,20.94
2022-08-27T08:34:34.743Z,20.98
2022-08-27T08:35:40.773Z,20.84
2022-08-27T08:36:34.594Z,20.75
2022-08-27T08:37:34.519Z,20.65
2022-08-27T08:38:34.441Z,20.79
2022-08-27T08:39:34.376Z,20.72
2022-08-27T08:40:34.334Z,20.75
2022-08-27T08:41:34.226Z,20.79
2022-08-27T08:42:34.149Z,20.86
2022-08-27T08:43:34.077Z,20.75
2022-08-27T08:44:33.995Z,20.82
2022-08-27T08:45:33.925Z,20.82
2022-08-27T08:46:33.934Z,20.76
2022-08-27T08:47:33.778Z,20.93
2022-08-27T08:48:33.702Z,20.75
2022-08-27T08:49:33.631Z,20.76
2022-08-27T08:50:33.556Z,20.79
2022-08-27T08:51:33.480Z,20.79
2022-08-27T08:52:33.401Z,20.79
2022-08-27T08:53:33.335Z,20.79
2022-08-27T08:54:33.254Z,20.87
2022-08-27T08:55:33.185Z,20.93
2022-08-27T08:56:33.110Z,20.99
2022-08-27T08:57:33.033Z,21.01
2022-08-27T08:58:32.958Z,21.06
2022-08-27T08:59:32.886Z,21.11
2022-08-27T09:00:32.813Z,21.14
2022-08-27T09:01:32.788Z,21.09
2022-08-27T09:02:32.666Z,21.17
2022-08-27T09:03:32.659Z,21.14
2022-08-27T09:04:32.511Z,21.09
2022-08-27T09:05:32.438Z,21.08
2022-08-27T09:06:32.363Z,21.09
2022-08-27T09:07:32.299Z,21.14
2022-08-27T09:08:36.541Z,21.12
2022-08-27T09:09:32.152Z,21.23
2022-08-27T09:10:32.073Z,21.12
2022-08-27T09:11:31.996Z,21.33
2022-08-27T09:12:31.925Z,21.16
2022-08-27T09:13:31.852Z,21.12
2022-08-27T09:14:31.775Z,21.27
2022-08-27T09:15:31.699Z,21.33
2022-08-27T09:16:31.670Z,21.36
2022-08-27T09:17:31.563Z,21.36
2022-08-27T09:18:31.479Z,21.38
2022-08-27T09:19:31.405Z,21.41
2022-08-27T09:20:31.335Z,21.35
2022-08-27T09:21:31.260Z,21.44
2022-08-27T09:22:31.183Z,21.56
2022-08-27T09:23:31.108Z,21.53
2022-08-27T09:24:31.036Z,21.60
2022-08-27T09:25:30.964Z,21.63
2022-08-27T09:26:30.886Z,21.69
2022-08-27T09:27:30.817Z,21.81
2022-08-27T09:28:30.740Z,21.86
2022-08-27T09:29:30.670Z,21.94
2022-08-27T09:30:31.106Z,22.04
2022-08-27T09:31:30.523Z,22.07
2022-08-27T09:32:30.446Z,22.01
2022-08-27T09:33:42.080Z,21.95
2022-08-27T09:34:30.294Z,22.02
2022-08-27T09:35:30.224Z,22.12
2022-08-27T09:36:30.150Z,22.08
2022-08-27T09:37:34.576Z,22.00
2022-08-27T09:38:29.999Z,22.04
2022-08-27T09:39:29.929Z,22.01
2022-08-27T09:40:29.916Z,22.08
2022-08-27T09:41:29.787Z,22.12
2022-08-27T09:42:29.709Z,22.05
2022-08-27T09:43:29.632Z,22.04
2022-08-27T09:44:29.559Z,22.16
2022-08-27T09:45:29.509Z,22.17
2022-08-27T09:46:29.413Z,22.13
2022-08-27T09:47:29.340Z,22.19
2022-08-27T09:48:29.265Z,22.19
2022-08-27T09:49:29.190Z,22.19
2022-08-27T09:50:29.123Z,22.26
2022-08-27T09:51:29.045Z,22.26
2022-08-27T09:52:28.973Z,22.23
2022-08-27T09:53:28.894Z,22.24
2022-08-27T09:54:28.849Z,22.24
2022-08-27T09:55:28.752Z,22.23
2022-08-27T09:56:28.703Z,22.22
2022-08-27T09:57:30.784Z,22.32
2022-08-27T09:58:28.559Z,22.30
2022-08-27T09:59:28.454Z,22.38
2022-08-27T10:00:28.383Z,22.39
2022-08-27T10:01:28.443Z,22.49
2022-08-27T10:02:28.235Z,22.53
2022-08-27T10:03:32.723Z,22.57
2022-08-27T10:04:28.195Z,22.67
2022-08-27T10:05:28.024Z,22.60
2022-08-27T10:06:27.946Z,22.53
2022-08-27T10:07:27.869Z,22.54
2022-08-27T10:08:27.793Z,22.50
2022-08-27T10:09:27.725Z,22.53
2022-08-27T10:10:27.647Z,22.54
2022-08-27T10:11:27.581Z,22.54
2022-08-27T10:12:27.504Z,22.63
2022-08-27T10:13:27.429Z,22.69
2022-08-27T10:14:27.359Z,22.63
2022-08-27T10:15:27.287Z,22.69
2022-08-27T10:16:27.252Z,22.65
2022-08-27T10:17:27.138Z,22.75
2022-08-27T10:18:27.060Z,22.69
2022-08-27T10:19:26.991Z,22.75
2022-08-27T10:20:30.204Z,22.83
2022-08-27T10:21:26.844Z,22.86
2022-08-27T10:22:26.772Z,22.86
2022-08-27T10:23:26.697Z,22.90
2022-08-27T10:24:26.621Z,22.83
2022-08-27T10:25:26.550Z,22.79
2022-08-27T10:26:29.622Z,22.81
2022-08-27T10:27:26.405Z,22.86
2022-08-27T10:28:26.329Z,22.94
2022-08-27T10:29:26.257Z,22.87
2022-08-27T10:30:26.186Z,22.96
2022-08-27T10:31:26.252Z,22.94
2022-08-27T10:32:26.046Z,22.99
2022-08-27T10:33:25.975Z,22.92
2022-08-27T10:34:25.892Z,22.94
2022-08-27T10:35:25.817Z,23.00
2022-08-27T10:36:26.402Z,23.04
2022-08-27T10:37:25.676Z,23.05
2022-08-27T10:38:25.596Z,23.07
2022-08-27T10:39:25.527Z,23.12
2022-08-27T10:40:25.492Z,23.05
2022-08-27T10:41:25.386Z,23.09
2022-08-27T10:42:25.306Z,23.18
2022-08-27T10:43:25.237Z,23.12
2022-08-27T10:44:25.169Z,23.22
2022-08-27T10:45:35.433Z,23.18
2022-08-27T10:46:26.990Z,23.23
2022-08-27T10:47:24.949Z,23.22
2022-08-27T10:48:24.869Z,23.34
2022-08-27T10:49:24.800Z,23.40
2022-08-27T10:50:24.730Z,23.38
2022-08-27T10:51:24.655Z,23.42
2022-08-27T10:52:24.580Z,23.40
2022-08-27T10:53:24.513Z,23.50
2022-08-27T10:54:24.431Z,23.58
2022-08-27T10:55:24.361Z,23.52
2022-08-27T10:56:24.324Z,23.53
2022-08-27T10:57:39.890Z,23.55
2022-08-27T10:58:24.139Z,23.55
2022-08-27T10:59:24.077Z,23.63
2022-08-27T11:00:23.998Z,23.55
2022-08-27T11:01:24.044Z,23.61
2022-08-27T11:02:23.893Z,23.61
2022-08-27T11:03:23.777Z,23.53
2022-08-27T11:04:23.706Z,23.50
2022-08-27T11:05:23.637Z,23.46
2022-08-27T11:06:23.565Z,23.37
2022-08-27T11:07:23.491Z,23.43
2022-08-27T11:08:23.416Z,23.50
2022-08-27T11:09:23.343Z,23.49
2022-08-27T11:10:23.272Z,23.58
2022-08-27T11:11:57.460Z,23.56
2022-08-27T11:12:23.125Z,23.63
2022-08-27T11:13:23.053Z,23.67
2022-08-27T11:14:22.985Z,23.74
2022-08-27T11:15:22.909Z,23.78
2022-08-27T11:16:22.868Z,23.89
2022-08-27T11:17:22.762Z,23.86
2022-08-27T11:18:22.690Z,23.87
2022-08-27T11:19:22.618Z,24.05
2022-08-27T11:20:22.546Z,23.90
2022-08-27T11:21:22.474Z,24.00
2022-08-27T11:22:26.331Z,24.00
2022-08-27T11:23:22.329Z,24.01
2022-08-27T11:24:22.256Z,24.04
2022-08-27T11:25:22.196Z,24.10
2022-08-27T11:26:22.111Z,24.04
2022-08-27T11:27:22.041Z,24.16
2022-08-27T11:28:29.619Z,24.22
2022-08-27T11:29:21.897Z,24.16
2022-08-27T11:30:21.819Z,24.26
2022-08-27T11:31:21.807Z,24.22
2022-08-27T11:32:21.682Z,24.30
2022-08-27T11:33:21.603Z,24.45
2022-08-27T11:34:21.533Z,24.54
2022-08-27T11:35:21.460Z,24.56
2022-08-27T11:36:21.387Z,24.63
2022-08-27T11:37:21.319Z,24.57
2022-08-27T11:38:21.253Z,24.63
2022-08-27T11:39:21.174Z,24.64
2022-08-27T11:40:21.159Z,24.78
2022-08-27T11:41:21.031Z,24.93
2022-08-27T11:42:20.962Z,24.83
2022-08-27T11:43:20.884Z,25.01
2022-08-27T11:44:20.816Z,25.08
2022-08-27T11:45:20.750Z,25.15
2022-08-27T11:46:20.713Z,25.46
2022-08-27T11:47:20.596Z,25.55
2022-08-27T11:48:20.530Z,25.57
2022-08-27T11:49:20.457Z,25.62
2022-08-27T11:50:20.385Z,25.68
2022-08-27T11:51:20.315Z,25.84
2022-08-27T11:52:20.240Z,25.90
2022-08-27T11:53:20.168Z,25.87
2022-08-27T11:54:20.096Z,25.89
2022-08-27T11:55:20.044Z,25.71
2022-08-27T11:56:19.974Z,25.70
2022-08-27T11:57:19.887Z,25.70
2022-08-27T11:58:19.813Z,25.71
2022-08-27T11:59:19.749Z,25.62
2022-08-27T12:00:19.675Z,25.70
2022-08-27T12:01:19.599Z,25.56
2022-08-27T12:02:19.533Z,25.55
2022-08-27T12:03:19.540Z,25.42
2022-08-27T12:04:19.436Z,25.32
2022-08-27T12:05:22.130Z,25.27
2022-08-27T12:06:19.242Z,25.19
2022-08-27T12:07:19.177Z,25.16
2022-08-27T12:08:21.167Z,25.10
2022-08-27T12:09:19.034Z,25.15
2022-08-27T12:10:18.958Z,25.12
2022-08-27T12:11:18.892Z,25.22
2022-08-27T12:12:18.815Z,25.20
2022-08-27T12:13:18.753Z,25.20
2022-08-27T12:14:18.674Z,25.19
2022-08-27T12:15:18.606Z,25.19
2022-08-27T12:16:18.575Z,25.20
2022-08-27T12:17:18.470Z,25.17
2022-08-27T12:18:18.393Z,25.15
2022-08-27T12:19:18.321Z,25.12
2022-08-27T12:20:18.246Z,25.16
2022-08-27T12:21:18.173Z,25.17
2022-08-27T12:22:18.102Z,25.16
2022-08-27T12:23:18.031Z,25.23
2022-08-27T12:24:17.966Z,25.17
2022-08-27T12:25:17.890Z,25.27
2022-08-27T12:26:17.823Z,25.25
2022-08-27T12:27:17.767Z,25.25
2022-08-27T12:28:17.680Z,25.28
2022-08-27T12:29:17.605Z,25.23
2022-08-27T12:30:17.539Z,25.25
2022-08-27T12:31:17.518Z,25.30
2022-08-27T12:32:17.397Z,25.40
2022-08-27T12:33:17.322Z,25.49
2022-08-27T12:34:17.252Z,25.56
2022-08-27T12:35:17.180Z,25.67
2022-08-27T12:36:21.242Z,25.68
2022-08-27T12:37:17.039Z,25.77
2022-08-27T12:38:17.168Z,25.82
2022-08-27T12:39:16.898Z,25.97
2022-08-27T12:40:16.865Z,26.07
2022-08-27T12:41:19.527Z,26.07
2022-08-27T12:42:16.683Z,26.15
2022-08-27T12:43:16.617Z,26.02
2022-08-27T12:44:16.544Z,25.96
2022-08-27T12:45:16.471Z,25.90
2022-08-27T12:46:16.442Z,25.94
2022-08-27T12:47:16.329Z,25.99
2022-08-27T12:48:16.263Z,25.99
2022-08-27T12:49:38.269Z,25.96
2022-08-27T12:50:16.118Z,25.93
2022-08-27T12:51:16.046Z,26.07